Time;durP1;ratioP1;P1;durP2;ratioP2;P2;SDS_P1;SDS_P2;PMS_P1;PMS_P2;Temp;Humidity;BMP_temperature;BMP_pressure;BME280_temperature;BME280_humidity;BME280_pressure;Samples;Min_cycle;Max_cycle;Signal;HPM_P1;HPM_P2
2022/04/13 00:00:56;;;;;;;;;;;;;;;20.91;26.33;98208.22;5030653;28;1922;-75
2022/04/13 00:03:21;;;;;;;;;;;;;;;21.18;25.83;98206.00;5014395;28;988;-74
2022/04/13 00:05:48;;;;;;;;;;;;;;;21.50;25.40;98198.84;5014024;28;1066;-75
2022/04/13 00:08:14;;;;;;;;;;;;;;;21.59;25.28;98193.38;5014411;28;1080;-75
2022/04/13 00:10:39;;;;;;;;;;;;;;;21.27;25.52;98194.09;5014187;28;950;-75
2022/04/13 00:13:05;;;;;;;;;;;;;;;21.05;26.05;98199.44;5029230;28;962;-75
2022/04/13 00:15:30;;;;;;;;;;;;;;;21.05;25.96;98194.56;5033922;28;1036;-75
2022/04/13 00:17:56;;;;;;;;;;;;;;;21.50;25.43;98191.19;5033940;28;943;-75
2022/04/13 00:20:22;;;;;;;;;;;;;;;21.73;25.00;98186.59;5037722;28;1012;-75
2022/04/13 00:22:48;;;;;;;;;;;;;;;21.93;24.63;98183.69;5076335;28;1914;-75
2022/04/13 00:25:13;;;;;;;;;;;;;;;21.56;25.17;98188.63;5107793;28;1001;-75
2022/04/13 00:27:39;;;;;;;;;;;;;;;21.20;25.50;98189.41;5075968;28;939;-75
2022/04/13 00:30:04;;;;;;;;;;;;;;;21.12;25.67;98182.28;5075972;28;985;-75
2022/04/13 00:32:32;;;;;;;;;;;;;;;21.08;25.84;98190.84;5075950;28;889;-75
2022/04/13 00:34:59;;;;;;;;;;;;;;;21.05;26.15;98182.47;5076377;28;997;-75
2022/04/13 00:37:25;;;;;;;;;;;;;;;21.05;26.19;98182.47;5075773;28;1163;-75
2022/04/13 00:39:50;;;;;;;;;;;;;;;20.92;26.23;98178.69;5075812;28;997;-75
2022/04/13 00:42:17;;;;;;;;;;;;;;;21.05;25.81;98179.63;5075800;28;1972;-75
2022/04/13 00:44:42;;;;;;;;;;;;;;;21.07;25.79;98174.31;5075818;28;1033;-75
2022/04/13 00:47:08;;;;;;;;;;;;;;;20.95;26.11;98175.00;5076096;28;869;-75
2022/04/13 00:49:34;;;;;;;;;;;;;;;21.19;25.88;98176.50;5075414;28;904;-74
2022/04/13 00:52:00;;;;;;;;;;;;;;;21.49;25.18;98177.44;5075877;28;946;-75
2022/04/13 00:54:25;;;;;;;;;;;;;;;21.89;24.63;98182.97;5113532;28;961;-75
2022/04/13 00:56:51;;;;;;;;;;;;;;;21.32;25.39;98185.13;5113573;28;992;-75
2022/04/13 00:59:16;;;;;;;;;;;;;;;20.98;26.11;98182.59;5096473;28;936;-75
2022/04/13 01:01:42;;;;;;;;;;;;;;;21.03;26.00;98191.34;5113580;28;1909;-75
2022/04/13 01:04:08;;;;;;;;;;;;;;;21.29;25.45;98198.06;5113749;28;1144;-75
2022/04/13 01:06:34;;;;;;;;;;;;;;;21.73;24.99;98195.88;5113471;28;965;-75
2022/04/13 01:08:59;;;;;;;;;;;;;;;21.68;24.64;98190.75;5113688;28;909;-75
2022/04/13 01:11:26;;;;;;;;;;;;;;;21.22;25.57;98194.63;5113274;28;1442;-75
2022/04/13 01:13:54;;;;;;;;;;;;;;;21.04;25.49;98192.19;5096604;28;963;-75
2022/04/13 01:16:23;;;;;;;;;;;;;;;20.96;25.93;98196.38;5113110;28;1033;-75
2022/04/13 01:18:48;;;;;;;;;;;;;;;21.56;25.36;98189.41;5113876;28;1022;-75
2022/04/13 01:21:16;;;;;;;;;;;;;;;21.74;24.86;98188.19;5113365;28;1991;-76
2022/04/13 01:23:41;;;;;;;;;;;;;;;21.55;24.71;98192.66;5072779;28;969;-74
2022/04/13 01:26:07;;;;;;;;;;;;;;;21.20;25.54;98189.41;5001661;28;1056;-75
2022/04/13 01:28:33;;;;;;;;;;;;;;;21.05;25.86;98185.28;4993409;28;1028;-75
2022/04/13 01:30:58;;;;;;;;;;;;;;;21.04;25.83;98186.53;4993398;28;1010;-75
2022/04/13 01:33:24;;;;;;;;;;;;;;;21.39;25.22;98184.16;4993538;28;929;-75
2022/04/13 01:35:50;;;;;;;;;;;;;;;21.76;24.85;98183.69;4993487;28;1116;-76
2022/04/13 01:38:15;;;;;;;;;;;;;;;21.54;25.02;98179.75;4993430;28;924;-76
2022/04/13 01:40:42;;;;;;;;;;;;;;;21.26;25.17;98187.66;4993336;28;1910;-75
2022/04/13 01:43:08;;;;;;;;;;;;;;;21.13;25.65;98183.88;4992863;28;1073;-75
2022/04/13 01:45:33;;;;;;;;;;;;;;;21.10;25.93;98179.13;4993453;28;1026;-74
2022/04/13 01:47:59;;;;;;;;;;;;;;;21.64;25.08;98184.38;4993343;28;1038;-76
2022/04/13 01:50:24;;;;;;;;;;;;;;;21.73;24.80;98178.91;4992994;28;981;-75
2022/04/13 01:52:50;;;;;;;;;;;;;;;21.33;25.24;98179.00;4993466;28;967;-75
2022/04/13 01:55:15;;;;;;;;;;;;;;;21.23;25.16;98182.84;4993445;28;1036;-74
2022/04/13 01:57:41;;;;;;;;;;;;;;;21.15;25.54;98181.44;5036723;28;1017;-75
2022/04/13 02:00:07;;;;;;;;;;;;;;;21.36;25.27;98185.06;5071054;28;988;-76
2022/04/13 02:02:33;;;;;;;;;;;;;;;21.67;24.73;98183.50;5074698;28;1989;-75
2022/04/13 02:04:59;;;;;;;;;;;;;;;21.46;24.75;98193.28;5074958;28;966;-75
2022/04/13 02:07:25;;;;;;;;;;;;;;;21.17;25.27;98189.47;5075275;28;987;-75
2022/04/13 02:09:51;;;;;;;;;;;;;;;21.06;25.62;98195.38;5116717;28;1101;-75
2022/04/13 02:12:16;;;;;;;;;;;;;;;21.04;25.46;98187.31;5116860;28;1068;-75
2022/04/13 02:14:42;;;;;;;;;;;;;;;21.52;24.96;98191.53;5116767;28;1028;-75
2022/04/13 02:17:07;;;;;;;;;;;;;;;21.67;24.66;98183.50;5116429;28;1050;-75
2022/04/13 02:19:33;;;;;;;;;;;;;;;21.44;24.87;98181.59;5116772;28;1132;-75
2022/04/13 02:21:58;;;;;;;;;;;;;;;21.36;25.16;98179.38;5116442;28;1913;-75
2022/04/13 02:24:24;;;;;;;;;;;;;;;21.13;25.51;98189.53;5116674;28;950;-75
2022/04/13 02:26:49;;;;;;;;;;;;;;;21.16;25.39;98191.50;5082463;28;983;-76
2022/04/13 02:29:15;;;;;;;;;;;;;;;21.41;25.02;98198.69;5116561;28;937;-75
2022/04/13 02:31:40;;;;;;;;;;;;;;;21.67;24.77;98200.50;5116663;28;1020;-75
2022/04/13 02:34:06;;;;;;;;;;;;;;;21.40;25.09;98197.06;5075517;28;1090;-75
2022/04/13 02:36:31;;;;;;;;;;;;;;;21.12;25.36;98193.59;5075462;28;1017;-74
2022/04/13 02:38:57;;;;;;;;;;;;;;;21.20;25.19;98195.06;5075551;28;1025;-75
2022/04/13 02:41:23;;;;;;;;;;;;;;;21.30;25.05;98194.06;5061211;28;1987;-74
2022/04/13 02:43:48;;;;;;;;;;;;;;;21.55;24.76;98198.34;5055686;28;979;-75
2022/04/13 02:46:14;;;;;;;;;;;;;;;21.75;24.44;98196.22;5075533;28;961;-75
2022/04/13 02:48:39;;;;;;;;;;;;;;;21.37;25.15;98203.63;5025497;28;1003;-75
2022/04/13 02:51:05;;;;;;;;;;;;;;;21.16;25.32;98205.66;5075535;28;1075;-75
2022/04/13 02:53:31;;;;;;;;;;;;;;;21.09;25.40;98200.16;5025567;28;972;-75
2022/04/13 02:55:57;;;;;;;;;;;;;;;21.30;25.26;98196.88;5075532;28;990;-76
2022/04/13 02:58:23;;;;;;;;;;;;;;;21.66;24.52;98204.56;5015524;28;1021;-75
2022/04/13 03:00:48;;;;;;;;;;;;;;;21.52;24.55;98204.91;5015607;28;1968;-74
2022/04/13 03:03:14;;;;;;;;;;;;;;;21.14;25.28;98199.66;4995513;28;1032;-75
2022/04/13 03:05:39;;;;;;;;;;;;;;;21.05;25.17;98203.06;4995469;28;1028;-75
2022/04/13 03:08:05;;;;;;;;;;;;;;;20.91;25.57;98216.69;4995771;28;1019;-75
2022/04/13 03:10:30;;;;;;;;;;;;;;;21.49;24.79;98222.75;4998273;28;932;-76
2022/04/13 03:12:56;;;;;;;;;;;;;;;21.69;24.50;98228.38;5034925;28;986;-75
2022/04/13 03:15:23;;;;;;;;;;;;;;;21.51;24.45;98220.28;5034824;28;1050;-75
2022/04/13 03:17:49;;;;;;;;;;;;;;;21.38;24.54;98216.53;5020394;28;957;-74
2022/04/13 03:20:14;;;;;;;;;;;;;;;21.13;24.99;98222.69;5015005;28;1030;-75
2022/04/13 03:22:39;;;;;;;;;;;;;;;20.98;25.49;98227.84;5014768;28;1902;-75
2022/04/13 03:25:05;;;;;;;;;;;;;;;21.52;24.78;98221.88;5015043;28;1005;-75
2022/04/13 03:27:30;;;;;;;;;;;;;;;21.67;24.39;98223.16;5015177;28;951;-74
2022/04/13 03:29:56;;;;;;;;;;;;;;;21.56;24.25;98229.06;5059014;28;1160;-75
2022/04/13 03:32:21;;;;;;;;;;;;;;;21.21;24.87;98230.59;5074767;28;1031;-76
2022/04/13 03:34:47;;;;;;;;;;;;;;;21.25;24.98;98248.31;5089307;28;891;-76
2022/04/13 03:37:12;;;;;;;;;;;;;;;21.00;25.25;98251.66;5077342;28;1313;-75
2022/04/13 03:39:38;;;;;;;;;;;;;;;20.96;25.55;98247.31;5094790;28;967;-76
2022/04/13 03:42:03;;;;;;;;;;;;;;;21.05;25.12;98239.03;5094334;28;1988;-76
2022/04/13 03:44:29;;;;;;;;;;;;;;;20.93;25.36;98242.50;5094610;28;845;-75
2022/04/13 03:46:54;;;;;;;;;;;;;;;21.04;25.21;98248.75;5094347;28;1050;-76
2022/04/13 03:49:20;;;;;;;;;;;;;;;21.03;25.09;98255.63;5094416;28;872;-75
2022/04/13 03:51:46;;;;;;;;;;;;;;;21.55;24.34;98254.97;5094568;28;1016;-75
2022/04/13 03:54:11;;;;;;;;;;;;;;;21.57;24.34;98252.50;5094377;28;981;-75
2022/04/13 03:56:37;;;;;;;;;;;;;;;21.56;24.29;98250.91;5093242;28;1110;-75
2022/04/13 03:59:07;;;;;;;;;;;;;;;21.25;24.81;98259.63;5076644;28;934;-75
2022/04/13 04:01:32;;;;;;;;;;;;;;;20.97;25.17;98254.53;5076490;28;1906;-75
2022/04/13 04:03:58;;;;;;;;;;;;;;;21.22;24.78;98260.50;5076714;28;994;-75
2022/04/13 04:06:26;;;;;;;;;;;;;;;21.00;25.34;98265.00;5076030;28;972;-76
2022/04/13 04:08:51;;;;;;;;;;;;;;;21.05;25.10;98261.66;5076745;28;964;-75
2022/04/13 04:11:17;;;;;;;;;;;;;;;21.01;25.40;98264.56;5107977;28;1460;-74
2022/04/13 04:13:42;;;;;;;;;;;;;;;21.24;24.95;98263.72;5076556;28;893;-76
2022/04/13 04:16:08;;;;;;;;;;;;;;;21.49;24.70;98266.00;5076470;28;930;-75
2022/04/13 04:18:34;;;;;;;;;;;;;;;21.77;24.21;98256.09;5076247;28;880;-75
2022/04/13 04:20:59;;;;;;;;;;;;;;;21.29;24.80;98260.34;5076166;28;2039;-75
2022/04/13 04:23:24;;;;;;;;;;;;;;;21.07;25.14;98259.19;5076567;28;996;-75
2022/04/13 04:25:50;;;;;;;;;;;;;;;20.98;25.43;98267.44;5076230;28;933;-75
2022/04/13 04:28:15;;;;;;;;;;;;;;;21.34;24.81;98273.22;5075988;28;942;-75
2022/04/13 04:30:41;;;;;;;;;;;;;;;21.56;24.47;98267.91;5075616;28;955;-76
2022/04/13 04:33:08;;;;;;;;;;;;;;;21.40;24.33;98265.81;5076012;28;915;-75
2022/04/13 04:35:34;;;;;;;;;;;;;;;21.19;24.80;98271.88;5076127;28;969;-76
2022/04/13 04:37:59;;;;;;;;;;;;;;;21.12;24.81;98272.03;5075802;28;873;-76
2022/04/13 04:40:26;;;;;;;;;;;;;;;21.29;24.75;98277.31;5075987;28;961;-76
2022/04/13 04:42:51;;;;;;;;;;;;;;;21.48;24.63;98266.44;5106858;28;1901;-75
2022/04/13 04:45:19;;;;;;;;;;;;;;;21.67;24.00;98279.78;5075692;28;923;-76
2022/04/13 04:47:48;;;;;;;;;;;;;;;21.32;24.48;98281.34;5075961;28;871;-75
2022/04/13 04:50:13;;;;;;;;;;;;;;;21.16;24.64;98278.44;5092425;28;1106;-76
2022/04/13 04:52:39;;;;;;;;;;;;;;;21.12;24.82;98289.81;5083496;28;1204;-76
2022/04/13 04:55:05;;;;;;;;;;;;;;;21.51;24.36;98282.56;5082871;28;1363;-76
2022/04/13 04:57:31;;;;;;;;;;;;;;;21.62;24.34;98283.13;5081976;28;1243;-76
2022/04/13 04:59:56;;;;;;;;;;;;;;;21.47;24.33;98296.00;5083775;28;1434;-76
2022/04/13 05:02:21;;;;;;;;;;;;;;;21.13;24.87;98291.41;5082238;28;1910;-76
2022/04/13 05:04:47;;;;;;;;;;;;;;;21.18;24.83;98293.72;5082412;28;1208;-76
2022/04/13 05:07:12;;;;;;;;;;;;;;;21.18;24.66;98293.72;5083711;28;1304;-76
2022/04/13 05:09:38;;;;;;;;;;;;;;;21.57;24.42;98303.47;5081610;28;1295;-76
2022/04/13 05:12:03;;;;;;;;;;;;;;;21.70;24.23;98295.88;5078776;28;1170;-75
2022/04/13 05:14:29;;;;;;;;;;;;;;;21.30;24.55;98301.59;5073032;28;995;-76
2022/04/13 05:16:55;;;;;;;;;;;;;;;21.11;24.72;98305.19;5073244;28;965;-76
2022/04/13 05:19:20;;;;;;;;;;;;;;;21.15;24.83;98300.28;5075540;28;1110;-75
2022/04/13 05:21:45;;;;;;;;;;;;;;;21.33;24.37;98305.59;5078390;28;1913;-76
2022/04/13 05:24:11;;;;;;;;;;;;;;;21.71;23.85;98302.34;5079856;28;914;-76
2022/04/13 05:26:37;;;;;;;;;;;;;;;21.83;23.81;98310.97;5075668;28;799;-77
2022/04/13 05:29:02;;;;;;;;;;;;;;;21.40;24.52;98298.97;5075333;28;884;-77
2022/04/13 05:31:28;;;;;;;;;;;;;;;21.17;24.55;98308.31;5074807;28;1205;-77
2022/04/13 05:33:54;;;;;;;;;;;;;;;21.25;24.70;98310.56;5074687;28;1188;-76
2022/04/13 05:36:19;;;;;;;;;;;;;;;21.38;24.58;98301.44;5075188;28;1228;-76
2022/04/13 05:38:45;;;;;;;;;;;;;;;21.50;24.19;98303.59;5074954;28;944;-76
2022/04/13 05:41:10;;;;;;;;;;;;;;;21.47;24.37;98310.16;5103420;28;1976;-76
2022/04/13 05:43:36;;;;;;;;;;;;;;;21.27;24.52;98312.97;5077311;28;975;-77
2022/04/13 05:46:01;;;;;;;;;;;;;;;21.22;24.64;98311.44;5078958;28;1694;-76
2022/04/13 05:48:27;;;;;;;;;;;;;;;21.25;24.39;98316.25;5079188;28;1136;-76
2022/04/13 05:50:52;;;;;;;;;;;;;;;21.11;24.73;98316.50;5079091;28;884;-76
2022/04/13 05:53:18;;;;;;;;;;;;;;;21.09;24.75;98313.34;5079262;28;928;-76
2022/04/13 05:55:43;;;;;;;;;;;;;;;21.08;24.79;98321.00;5078365;28;990;-76
2022/04/13 05:58:09;;;;;;;;;;;;;;;21.26;24.53;98317.03;5079236;28;846;-76
2022/04/13 06:00:34;;;;;;;;;;;;;;;21.59;23.94;98320.81;5079221;28;930;-75
2022/04/13 06:03:00;;;;;;;;;;;;;;;21.73;24.08;98314.84;5078879;28;2017;-76
2022/04/13 06:05:25;;;;;;;;;;;;;;;21.42;24.15;98324.81;5077872;28;1278;-77
2022/04/13 06:07:53;;;;;;;;;;;;;;;21.16;24.85;98320.88;5078600;28;1307;-76
2022/04/13 06:10:19;;;;;;;;;;;;;;;20.90;25.15;98322.59;5078435;28;1424;-76
2022/04/13 06:12:46;;;;;;;;;;;;;;;21.06;24.88;98325.50;5078039;28;1367;-76
2022/04/13 06:15:12;;;;;;;;;;;;;;;21.45;24.51;98323.94;5078321;28;1355;-76
2022/04/13 06:17:37;;;;;;;;;;;;;;;21.68;23.98;98326.69;5077973;28;1315;-77
2022/04/13 06:20:03;;;;;;;;;;;;;;;21.44;24.14;98328.00;5078211;28;1331;-77
2022/04/13 06:22:33;;;;;;;;;;;;;;;21.13;24.82;98325.34;5077915;28;1914;-76
2022/04/13 06:25:01;;;;;;;;;;;;;;;21.13;24.76;98322.53;5078229;28;1279;-76
2022/04/13 06:27:26;;;;;;;;;;;;;;;21.28;24.46;98329.50;5075468;28;1421;-76
2022/04/13 06:29:52;;;;;;;;;;;;;;;21.71;24.10;98331.50;5075488;28;1254;-76
2022/04/13 06:32:18;;;;;;;;;;;;;;;21.55;24.09;98328.56;5075445;28;1296;-76
2022/04/13 06:34:43;;;;;;;;;;;;;;;21.30;24.21;98335.56;5058399;28;1320;-76
2022/04/13 06:37:09;;;;;;;;;;;;;;;21.22;24.59;98321.97;5075105;28;1355;-76
2022/04/13 06:39:34;;;;;;;;;;;;;;;21.12;24.49;98329.41;5074984;28;1312;-76
2022/04/13 06:41:59;;;;;;;;;;;;;;;21.54;24.15;98330.59;5075293;28;1914;-77
2022/04/13 06:44:25;;;;;;;;;;;;;;;21.64;23.73;98325.97;5075041;28;1300;-76
2022/04/13 06:46:50;;;;;;;;;;;;;;;21.50;24.04;98327.09;5075037;28;1332;-76
2022/04/13 06:49:16;;;;;;;;;;;;;;;21.28;24.22;98325.88;5075136;28;1384;-77
2022/04/13 06:51:42;;;;;;;;;;;;;;;21.14;24.63;98332.63;5074913;28;1502;-77
2022/04/13 06:54:07;;;;;;;;;;;;;;;21.00;24.62;98327.25;5074424;28;1391;-77
2022/04/13 06:56:33;;;;;;;;;;;;;;;21.37;24.28;98328.16;5075046;28;1348;-77
2022/04/13 06:58:58;;;;;;;;;;;;;;;21.81;23.86;98330.44;5076645;28;1394;-75
2022/04/13 07:01:24;;;;;;;;;;;;;;;21.33;24.08;98333.88;5077095;28;1922;-76
2022/04/13 07:03:49;;;;;;;;;;;;;;;21.22;24.49;98321.97;5077587;28;1339;-77
2022/04/13 07:06:15;;;;;;;;;;;;;;;21.10;24.38;98320.59;5077304;28;1489;-77
2022/04/13 07:08:41;;;;;;;;;;;;;;;21.23;24.27;98330.00;5077280;28;1412;-76
2022/04/13 07:11:06;;;;;;;;;;;;;;;21.54;23.75;98324.94;5077170;28;1362;-77
2022/04/13 07:13:32;;;;;;;;;;;;;;;21.79;23.40;98335.75;5077113;28;1352;-76
2022/04/13 07:15:57;;;;;;;;;;;;;;;21.37;24.21;98328.97;5077217;28;1348;-76
2022/04/13 07:18:23;;;;;;;;;;;;;;;21.20;24.21;98335.75;5076822;28;1220;-76
2022/04/13 07:20:48;;;;;;;;;;;;;;;21.03;24.46;98337.69;5077207;28;1981;-76
2022/04/13 07:23:14;;;;;;;;;;;;;;;21.02;24.64;98347.41;5077613;28;894;-76
2022/04/13 07:25:39;;;;;;;;;;;;;;;21.35;24.28;98341.94;5077345;28;861;-76
2022/04/13 07:28:05;;;;;;;;;;;;;;;21.56;23.97;98347.19;5077462;28;992;-76
2022/04/13 07:30:31;;;;;;;;;;;;;;;21.42;24.00;98341.81;5076697;28;1608;-77
2022/04/13 07:33:01;;;;;;;;;;;;;;;21.31;23.92;98342.81;5076860;28;1407;-76
2022/04/13 07:35:27;;;;;;;;;;;;;;;21.23;24.18;98347.00;5076464;28;1335;-76
2022/04/13 07:37:52;;;;;;;;;;;;;;;21.40;24.25;98349.91;5076685;28;1257;-77
2022/04/13 07:40:18;;;;;;;;;;;;;;;21.60;23.69;98347.88;5076499;28;1204;-76
2022/04/13 07:42:43;;;;;;;;;;;;;;;21.91;23.49;98344.78;5076590;28;1909;-77
2022/04/13 07:45:09;;;;;;;;;;;;;;;21.34;24.07;98341.13;5076386;28;1221;-76
2022/04/13 07:47:34;;;;;;;;;;;;;;;21.16;24.24;98341.47;5076394;28;1205;-76
2022/04/13 07:50:00;;;;;;;;;;;;;;;21.25;24.05;98338.88;5073677;28;1114;-76
2022/04/13 07:52:25;;;;;;;;;;;;;;;21.28;24.27;98338.00;5076398;28;1244;-76
2022/04/13 07:54:51;;;;;;;;;;;;;;;21.62;23.91;98338.97;5076376;28;1228;-76
2022/04/13 07:57:16;;;;;;;;;;;;;;;21.82;23.70;98346.22;5076413;28;1261;-76
2022/04/13 07:59:42;;;;;;;;;;;;;;;21.93;23.40;98331.81;5076266;28;1303;-76
2022/04/13 08:02:07;;;;;;;;;;;;;;;21.50;23.75;98337.59;5076163;28;1977;-75
2022/04/13 08:04:33;;;;;;;;;;;;;;;21.18;24.11;98344.66;5076388;28;918;-76
2022/04/13 08:06:58;;;;;;;;;;;;;;;21.05;24.60;98346.53;5075597;28;867;-76
2022/04/13 08:09:24;;;;;;;;;;;;;;;21.02;24.45;98341.75;5076402;28;1118;-76
2022/04/13 08:11:52;;;;;;;;;;;;;;;21.51;23.76;98342.03;5094049;28;1017;-76
2022/04/13 08:14:20;;;;;;;;;;;;;;;21.68;23.58;98332.34;5053467;28;1119;-76
2022/04/13 08:16:46;;;;;;;;;;;;;;;21.53;23.63;98333.88;5053964;28;1007;-76
2022/04/13 08:19:11;;;;;;;;;;;;;;;21.11;24.21;98335.53;5053409;28;996;-76
2022/04/13 08:21:38;;;;;;;;;;;;;;;21.05;24.64;98329.56;5053737;28;1981;-76
2022/04/13 08:24:04;;;;;;;;;;;;;;;21.04;24.41;98333.63;5053429;28;886;-75
2022/04/13 08:26:30;;;;;;;;;;;;;;;21.49;23.86;98330.31;5053699;28;976;-76
2022/04/13 08:28:55;;;;;;;;;;;;;;;21.74;23.63;98322.09;5053183;28;1017;-76
2022/04/13 08:31:20;;;;;;;;;;;;;;;21.46;23.67;98319.91;5053959;28;915;-76
2022/04/13 08:33:46;;;;;;;;;;;;;;;21.01;24.25;98323.19;5053671;28;1033;-76
2022/04/13 08:36:12;;;;;;;;;;;;;;;20.99;24.47;98325.66;5053974;28;1029;-76
2022/04/13 08:38:38;;;;;;;;;;;;;;;21.13;24.38;98331.00;5053505;28;943;-76
2022/04/13 08:41:06;;;;;;;;;;;;;;;21.55;23.73;98317.25;5053182;28;1902;-76
2022/04/13 08:43:33;;;;;;;;;;;;;;;21.71;23.51;98325.81;5053236;28;1048;-76
2022/04/13 08:46:03;;;;;;;;;;;;;;;21.40;23.95;98319.59;5069998;28;953;-75
2022/04/13 08:48:29;;;;;;;;;;;;;;;21.08;24.42;98320.19;5072954;28;1041;-76
2022/04/13 08:50:58;;;;;;;;;;;;;;;21.06;24.13;98319.84;5056766;28;983;-76
2022/04/13 08:53:26;;;;;;;;;;;;;;;21.21;24.08;98317.53;5056680;28;1060;-76
2022/04/13 08:55:53;;;;;;;;;;;;;;;21.60;23.53;98319.56;5073302;28;979;-76
2022/04/13 08:58:36;;;;;;;;;;;;;;;21.73;23.50;98311.22;5073271;28;1091;-76
2022/04/13 09:01:02;;;;;;;;;;;;;;;21.03;24.39;98315.03;5072794;28;1969;-76
2022/04/13 09:03:38;;;;;;;;;;;;;;;20.97;24.49;98305.47;5072777;28;1121;-75
2022/04/13 09:06:03;;;;;;;;;;;;;;;20.79;24.74;98312.25;5056212;28;947;-76
2022/04/13 09:08:33;;;;;;;;;;;;;;;21.31;24.08;98303.19;5056390;28;1105;-76
2022/04/13 09:10:59;;;;;;;;;;;;;;;21.62;23.35;98308.63;5056224;28;1180;-75
2022/04/13 09:13:25;;;;;;;;;;;;;;;21.42;23.60;98302.19;5073004;28;994;-76
2022/04/13 09:15:50;;;;;;;;;;;;;;;21.28;23.95;98294.75;5032748;28;1001;-76
2022/04/13 09:18:16;;;;;;;;;;;;;;;20.88;24.42;98291.91;5015688;28;1018;-76
2022/04/13 09:20:41;;;;;;;;;;;;;;;21.10;24.09;98285.84;4973735;28;1296;-76
2022/04/13 09:23:07;;;;;;;;;;;;;;;21.62;23.34;98283.13;5013018;28;1914;-75
2022/04/13 09:25:33;;;;;;;;;;;;;;;21.77;23.27;98278.75;5013186;28;982;-75
2022/04/13 09:27:59;;;;;;;;;;;;;;;21.33;23.88;98277.28;4973731;28;1193;-75
2022/04/13 09:30:24;;;;;;;;;;;;;;;21.09;23.94;98276.56;4974211;28;1116;-75
2022/04/13 09:32:50;;;;;;;;;;;;;;;20.97;24.36;98277.19;4973937;28;949;-76
2022/04/13 09:35:15;;;;;;;;;;;;;;;21.31;23.83;98279.75;5006401;28;1005;-76
2022/04/13 09:37:41;;;;;;;;;;;;;;;21.78;23.13;98262.53;4974030;28;1156;-76
2022/04/13 09:40:07;;;;;;;;;;;;;;;22.04;22.62;98270.00;4990087;28;908;-76
2022/04/13 09:42:32;;;;;;;;;;;;;;;21.41;23.39;98261.75;5006074;28;1906;-76
2022/04/13 09:45:01;;;;;;;;;;;;;;;21.17;23.74;98269.50;4976661;28;1040;-75
2022/04/13 09:47:31;;;;;;;;;;;;;;;21.09;23.98;98268.06;5007816;28;995;-76
2022/04/13 09:49:56;;;;;;;;;;;;;;;20.95;24.13;98279.66;5012807;28;1022;-76
2022/04/13 09:52:25;;;;;;;;;;;;;;;21.49;23.57;98262.38;5043922;28;1165;-77
2022/04/13 09:54:51;;;;;;;;;;;;;;;21.71;23.18;98268.34;5052143;28;1134;-76
2022/04/13 09:57:22;;;;;;;;;;;;;;;21.54;23.03;98259.81;5012536;28;996;-75
2022/04/13 09:59:57;;;;;;;;;;;;;;;21.37;23.22;98260.22;5046113;28;1000;-76
2022/04/13 10:02:43;;;;;;;;;;;;;;;21.00;23.66;98273.50;5052491;28;1977;-75
2022/04/13 10:05:09;;;;;;;;;;;;;;;21.07;23.85;98262.03;5051752;28;2162;-76
2022/04/13 10:07:35;;;;;;;;;;;;;;;21.72;23.16;98265.09;5035507;28;1202;-76
2022/04/13 10:10:01;;;;;;;;;;;;;;;21.74;23.04;98262.63;5052268;28;948;-75
2022/04/13 10:12:26;;;;;;;;;;;;;;;21.42;23.22;98256.88;5052096;28;1028;-75
2022/04/13 10:14:52;;;;;;;;;;;;;;;21.19;23.34;98261.38;5051549;28;2104;-75
2022/04/13 10:17:20;;;;;;;;;;;;;;;21.09;23.45;98262.41;5052142;28;1042;-76
2022/04/13 10:19:51;;;;;;;;;;;;;;;21.45;23.34;98256.00;5052065;28;937;-75
2022/04/13 10:22:17;;;;;;;;;;;;;;;21.67;22.98;98262.78;5051976;28;1914;-75
2022/04/13 10:24:43;;;;;;;;;;;;;;;21.51;22.97;98260.72;5043718;28;975;-76
2022/04/13 10:27:09;;;;;;;;;;;;;;;21.22;23.44;98266.16;5049586;28;973;-76
2022/04/13 10:29:35;;;;;;;;;;;;;;;21.26;23.28;98269.72;5056989;28;1023;-76
2022/04/13 10:32:02;;;;;;;;;;;;;;;21.19;23.39;98280.38;5058282;28;936;-76
2022/04/13 10:34:31;;;;;;;;;;;;;;;21.36;23.21;98252.97;5095958;28;1062;-76
2022/04/13 10:36:57;;;;;;;;;;;;;;;21.63;22.88;98262.06;5096015;28;1037;-76
2022/04/13 10:39:22;;;;;;;;;;;;;;;21.72;22.72;98262.28;5096043;28;1104;-76
2022/04/13 10:41:48;;;;;;;;;;;;;;;21.30;22.85;98264.81;5095698;28;1909;-76
2022/04/13 10:44:14;;;;;;;;;;;;;;;21.27;22.98;98268.47;5095890;28;985;-76
2022/04/13 10:46:40;;;;;;;;;;;;;;;21.02;23.70;98266.16;5095979;28;1014;-76
2022/04/13 10:49:07;;;;;;;;;;;;;;;20.96;23.68;98273.56;5075405;28;1403;-76
2022/04/13 10:51:32;;;;;;;;;;;;;;;21.45;23.06;98261.66;5059402;28;1009;-76
2022/04/13 10:53:59;;;;;;;;;;;;;;;21.76;22.44;98265.81;5058658;28;1106;-76
2022/04/13 10:56:26;;;;;;;;;;;;;;;21.41;22.98;98261.75;5075545;28;1042;-75
2022/04/13 10:59:00;;;;;;;;;;;;;;;21.17;23.24;98258.19;5075337;28;1244;-76
2022/04/13 11:01:27;;;;;;;;;;;;;;;21.11;23.40;98254.25;5075303;28;1905;-76
2022/04/13 11:03:53;;;;;;;;;;;;;;;21.41;22.80;98264.59;5058682;28;981;-76
2022/04/13 11:06:18;;;;;;;;;;;;;;;21.68;22.66;98264.38;5018284;28;1079;-76
2022/04/13 11:08:46;;;;;;;;;;;;;;;21.58;22.63;98254.09;5015445;28;964;-76
2022/04/13 11:11:17;;;;;;;;;;;;;;;21.25;23.12;98245.50;5015864;28;1088;-76
2022/04/13 11:13:44;;;;;;;;;;;;;;;21.28;23.08;98247.41;5015079;28;1058;-76
2022/04/13 11:16:19;;;;;;;;;;;;;;;21.09;23.49;98245.44;5015366;28;1065;-76
2022/04/13 11:19:03;;;;;;;;;;;;;;;21.53;22.81;98246.91;5015453;28;983;-76
2022/04/13 11:21:29;;;;;;;;;;;;;;;21.81;22.23;98233.31;4995509;28;1914;-76
2022/04/13 11:23:55;;;;;;;;;;;;;;;21.45;22.94;98234.16;4995591;28;1010;-76
2022/04/13 11:26:35;;;;;;;;;;;;;;;21.46;22.85;98229.31;4995586;28;923;-76
2022/04/13 11:29:09;;;;;;;;;;;;;;;21.16;23.11;98221.84;4995241;28;1336;-75
2022/04/13 11:31:53;;;;;;;;;;;;;;;21.08;23.24;98238.16;4995585;28;1071;-76
2022/04/13 11:34:26;;;;;;;;;;;;;;;21.67;22.49;98223.16;4994883;28;1090;-76
2022/04/13 11:36:52;;;;;;;;;;;;;;;21.97;21.83;98241.06;5007869;28;1024;-76
2022/04/13 11:39:37;;;;;;;;;;;;;;;21.44;22.33;98231.75;5034524;28;1127;-75
2022/04/13 11:42:03;;;;;;;;;;;;;;;21.35;22.79;98229.53;5034685;28;1914;-76
2022/04/13 11:44:45;;;;;;;;;;;;;;;21.27;22.87;98228.84;5050866;28;1133;-76
2022/04/13 11:47:14;;;;;;;;;;;;;;;21.62;22.37;98232.16;5057880;28;1244;-75
2022/04/13 11:49:59;;;;;;;;;;;;;;;21.85;21.92;98223.50;5053745;28;1329;-75
2022/04/13 11:52:41;;;;;;;;;;;;;;;21.54;22.42;98230.72;5053710;28;1325;-75
2022/04/13 11:55:22;;;;;;;;;;;;;;;21.22;22.72;98232.19;5020740;28;1020;-76
2022/04/13 11:58:12;;;;;;;;;;;;;;;21.23;22.72;98227.34;5054158;28;1010;-75
2022/04/13 12:00:43;;;;;;;;;;;;;;;21.61;22.17;98224.13;4974681;28;1053;-75
2022/04/13 12:03:09;;;;;;;;;;;;;;;21.85;21.93;98226.34;4975143;28;1984;-76
2022/04/13 12:05:35;;;;;;;;;;;;;;;21.56;21.97;98222.59;4951711;28;1150;-76
2022/04/13 12:08:01;;;;;;;;;;;;;;;21.20;22.73;98223.34;4936883;29;1050;-76
2022/04/13 12:10:34;;;;;;;;;;;;;;;21.18;22.80;98214.50;4936824;29;1040;-76
2022/04/13 12:13:02;;;;;;;;;;;;;;;20.97;23.10;98212.13;4936515;29;1742;-75
2022/04/13 12:15:39;;;;;;;;;;;;;;;21.15;22.67;98218.22;4936724;29;1058;-75
2022/04/13 12:18:07;;;;;;;;;;;;;;;21.52;22.37;98199.22;4936591;29;1008;-75
2022/04/13 12:20:33;;;;;;;;;;;;;;;21.84;21.89;98202.09;4944951;29;1216;-75
2022/04/13 12:22:58;;;;;;;;;;;;;;;21.44;22.37;98209.09;4955692;28;1910;-75
2022/04/13 12:25:24;;;;;;;;;;;;;;;21.25;22.24;98211.53;4955650;28;925;-76
2022/04/13 12:28:02;;;;;;;;;;;;;;;21.15;22.62;98209.72;4955584;28;1063;-75
2022/04/13 12:30:28;;;;;;;;;;;;;;;21.12;22.93;98193.59;4955955;28;1011;-75
2022/04/13 12:32:53;;;;;;;;;;;;;;;21.49;22.19;98202.94;4994431;28;941;-75
2022/04/13 12:35:19;;;;;;;;;;;;;;;21.79;21.84;98185.63;4994228;28;832;-76
2022/04/13 12:37:48;;;;;;;;;;;;;;;21.35;22.48;98194.75;5019580;28;1291;-76
2022/04/13 12:40:23;;;;;;;;;;;;;;;21.32;22.40;98185.13;5033113;28;1055;-76
2022/04/13 12:42:49;;;;;;;;;;;;;;;21.25;22.69;98180.41;5033490;28;1977;-76
2022/04/13 12:45:15;;;;;;;;;;;;;;;21.66;22.01;98181.91;5033476;28;1006;-75
2022/04/13 12:47:47;;;;;;;;;;;;;;;21.78;22.07;98189.69;5033439;28;1050;-75
2022/04/13 12:50:12;;;;;;;;;;;;;;;21.29;22.65;98186.75;5033236;28;1106;-75
2022/04/13 12:52:38;;;;;;;;;;;;;;;21.21;22.67;98191.00;5033011;28;943;-75
2022/04/13 12:55:04;;;;;;;;;;;;;;;21.19;22.55;98182.16;5000121;28;994;-75
2022/04/13 12:57:29;;;;;;;;;;;;;;;20.95;23.18;98175.00;5033399;28;1029;-75